createdAt,value
2022-08-22T00:08:44.857Z,66.28
2022-08-22T00:14:02.208Z,66.50
2022-08-22T00:19:25.553Z,66.26
2022-08-22T00:24:48.665Z,66.53
2022-08-22T00:30:00.831Z,66.21
2022-08-22T00:35:15.248Z,66.56
2022-08-22T00:40:29.138Z,66.65
2022-08-22T00:45:39.831Z,66.65
2022-08-22T00:51:15.002Z,66.41
2022-08-22T00:56:41.777Z,66.48
2022-08-22T01:01:56.430Z,66.69
2022-08-22T01:07:48.721Z,66.46
2022-08-22T01:13:13.145Z,66.55
2022-08-22T01:18:56.115Z,66.81
2022-08-22T01:24:00.633Z,66.97
2022-08-22T01:29:32.664Z,66.74
2022-08-22T01:34:49.469Z,66.90
2022-08-22T01:40:10.087Z,66.91
2022-08-22T01:45:46.001Z,66.77
2022-08-22T01:50:55.148Z,66.99
2022-08-22T01:56:09.219Z,66.86
2022-08-22T02:01:10.971Z,67.10
2022-08-22T02:06:23.339Z,66.90
2022-08-22T02:11:44.645Z,67.10
2022-08-22T02:16:55.037Z,67.16
2022-08-22T02:22:18.457Z,67.02
2022-08-22T02:27:40.105Z,67.07
2022-08-22T02:33:02.400Z,67.03
2022-08-22T02:38:31.577Z,67.37
2022-08-22T02:43:36.891Z,67.30
2022-08-22T02:48:53.728Z,67.37
2022-08-22T02:54:21.805Z,67.28
2022-08-22T02:59:33.653Z,67.49
2022-08-22T03:04:41.549Z,67.53
2022-08-22T03:09:49.560Z,67.58
2022-08-22T03:15:03.530Z,67.97
2022-08-22T03:20:11.078Z,67.84
2022-08-22T03:25:26.268Z,67.91
2022-08-22T03:30:37.110Z,67.84
2022-08-22T03:35:42.615Z,67.64
2022-08-22T03:41:06.920Z,67.62
2022-08-22T03:46:44.012Z,67.70
2022-08-22T03:52:04.677Z,67.77
2022-08-22T03:57:09.169Z,67.79
2022-08-22T04:02:43.482Z,67.77
2022-08-22T04:08:08.505Z,67.88
2022-08-22T04:13:29.128Z,68.05
2022-08-22T04:19:01.997Z,68.08
2022-08-22T04:24:13.039Z,67.94
2022-08-22T04:29:37.577Z,67.97
2022-08-22T04:35:06.944Z,68.16
2022-08-22T04:40:19.529Z,67.90
2022-08-22T04:45:52.526Z,68.05
2022-08-22T04:51:08.281Z,68.04
2022-08-22T04:56:24.802Z,68.26
2022-08-22T05:01:39.297Z,68.21
2022-08-22T05:06:47.362Z,68.33
2022-08-22T05:11:54.059Z,68.33
2022-08-22T05:16:57.509Z,68.39
2022-08-22T05:22:01.156Z,68.45
2022-08-22T05:27:18.385Z,68.53
2022-08-22T05:32:29.117Z,68.45
2022-08-22T05:37:36.598Z,68.63
2022-08-22T05:42:38.526Z,68.41
2022-08-22T05:47:50.070Z,68.57
2022-08-22T05:53:00.217Z,68.72
2022-08-22T05:58:04.627Z,68.45
2022-08-22T06:03:24.332Z,68.57
2022-08-22T06:08:40.152Z,68.67
2022-08-22T06:13:49.690Z,68.58
2022-08-22T06:18:56.366Z,68.50
2022-08-22T06:24:01.667Z,68.52
2022-08-22T06:29:07.746Z,68.66
2022-08-22T06:34:14.814Z,68.81
2022-08-22T06:39:24.168Z,68.38
2022-08-22T06:44:35.796Z,68.64
2022-08-22T06:49:40.512Z,68.49
2022-08-22T06:54:47.771Z,68.62
2022-08-22T06:59:50.830Z,68.84
2022-08-22T07:04:53.228Z,68.78
2022-08-22T07:09:57.702Z,68.75
2022-08-22T07:15:10.013Z,68.73
2022-08-22T07:20:27.084Z,68.92
2022-08-22T07:25:32.100Z,68.87
2022-08-22T07:31:03.121Z,68.79
2022-08-22T07:36:34.094Z,68.64
2022-08-22T07:42:15.332Z,68.72
2022-08-22T07:47:26.179Z,68.81
2022-08-22T07:52:38.708Z,69.00
2022-08-22T07:57:45.607Z,68.67
2022-08-22T08:03:01.474Z,69.33
2022-08-22T08:08:32.475Z,69.10
2022-08-22T08:13:38.253Z,69.24
2022-08-22T08:18:40.612Z,69.23
2022-08-22T08:23:47.393Z,69.14
2022-08-22T08:28:52.727Z,69.11
2022-08-22T08:34:06.788Z,69.28
2022-08-22T08:39:35.999Z,69.02
2022-08-22T08:44:49.829Z,69.21
2022-08-22T08:50:16.100Z,68.92
2022-08-22T08:55:45.800Z,69.12
2022-08-22T09:01:29.709Z,69.16
2022-08-22T09:07:01.015Z,69.02
2022-08-22T09:12:12.465Z,69.02
2022-08-22T09:17:52.182Z,68.61
2022-08-22T09:23:20.310Z,68.75
2022-08-22T09:28:40.054Z,68.45
2022-08-22T09:34:06.199Z,68.23
2022-08-22T09:39:18.166Z,67.89
2022-08-22T09:44:41.151Z,67.13
2022-08-22T09:50:10.472Z,66.95
2022-08-22T09:55:35.191Z,66.60
2022-08-22T10:00:47.301Z,66.86
2022-08-22T10:06:05.603Z,66.41
2022-08-22T10:11:43.282Z,66.06
2022-08-22T10:17:10.548Z,65.60
2022-08-22T10:22:15.889Z,65.62
2022-08-22T10:27:40.083Z,65.47
2022-08-22T10:32:56.640Z,65.29
2022-08-22T10:38:25.077Z,65.58
2022-08-22T10:44:00.494Z,64.97
2022-08-22T10:49:28.243Z,65.17
2022-08-22T10:54:43.250Z,64.91
2022-08-22T11:00:08.992Z,64.52
2022-08-22T11:05:18.471Z,64.60
2022-08-22T11:10:32.592Z,64.44
2022-08-22T11:15:51.165Z,64.18
2022-08-22T11:21:14.696Z,63.77
2022-08-22T11:26:33.618Z,64.20
2022-08-22T11:31:47.427Z,64.09
2022-08-22T11:37:01.547Z,63.53
2022-08-22T11:42:09.225Z,63.55
2022-08-22T11:47:16.493Z,63.06
2022-08-22T11:52:30.674Z,62.95
2022-08-22T11:57:44.852Z,63.13
2022-08-22T12:02:47.543Z,62.89
2022-08-22T12:08:04.438Z,62.16
2022-08-22T12:13:38.721Z,62.38
2022-08-22T12:18:55.180Z,62.09
2022-08-22T12:24:57.765Z,61.40
2022-08-22T12:30:13.736Z,61.62
2022-08-22T12:35:29.813Z,61.32
2022-08-22T12:41:14.225Z,61.22
2022-08-22T12:47:02.190Z,60.95
2022-08-22T12:52:40.111Z,60.89
2022-08-22T12:57:42.397Z,60.98
2022-08-22T13:02:53.713Z,61.05
2022-08-22T13:08:04.630Z,60.84
2022-08-22T13:13:12.144Z,60.82
2022-08-22T13:18:30.050Z,60.34
2022-08-22T13:23:44.113Z,60.76
2022-08-22T13:28:56.757Z,60.47
2022-08-22T13:35:00.307Z,60.46
2022-08-22T13:40:07.781Z,60.50
2022-08-22T13:45:21.316Z,60.27
2022-08-22T13:50:28.874Z,60.44
2022-08-22T13:55:43.706Z,59.94
2022-08-22T14:01:14.236Z,59.30
2022-08-22T14:06:54.848Z,59.36
2022-08-22T14:12:25.338Z,59.13
2022-08-22T14:18:01.045Z,59.07
2022-08-22T14:23:18.906Z,59.32
2022-08-22T14:28:31.509Z,59.07
2022-08-22T14:33:54.373Z,59.01
2022-08-22T14:39:10.333Z,59.02
2022-08-22T14:44:22.382Z,58.88
2022-08-22T14:49:56.577Z,58.84
2022-08-22T14:55:24.252Z,58.58
2022-08-22T15:00:31.463Z,58.26
2022-08-22T15:05:50.268Z,58.11
2022-08-22T15:11:11.267Z,58.20
2022-08-22T15:16:17.876Z,58.24
2022-08-22T15:21:24.804Z,58.14
2022-08-22T15:26:35.508Z,58.33
2022-08-22T15:31:46.796Z,58.51
2022-08-22T15:37:24.874Z,58.63
2022-08-22T15:42:50.202Z,59.04
2022-08-22T15:47:54.375Z,59.19
2022-08-22T15:53:13.931Z,59.43
2022-08-22T15:58:25.323Z,59.51
2022-08-22T16:03:31.711Z,59.52
2022-08-22T16:08:36.717Z,59.79
2022-08-22T16:13:43.864Z,59.66
2022-08-22T16:18:49.015Z,59.26
2022-08-22T16:23:53.894Z,59.36
2022-08-22T16:29:14.991Z,59.46
2022-08-22T16:34:23.217Z,59.48
2022-08-22T16:39:25.185Z,59.54
2022-08-22T16:44:39.292Z,59.38
2022-08-22T16:50:16.869Z,59.91
2022-08-22T16:55:31.004Z,59.86
2022-08-22T17:00:32.838Z,59.58
2022-08-22T17:06:07.816Z,59.72
2022-08-22T17:11:27.937Z,59.82
2022-08-22T17:16:52.052Z,59.68
2022-08-22T17:22:39.081Z,59.59
2022-08-22T17:27:45.133Z,59.51
2022-08-22T17:33:02.981Z,59.35
2022-08-22T17:38:20.591Z,59.81
2022-08-22T17:44:19.755Z,59.65
2022-08-22T17:49:49.423Z,59.67
2022-08-22T17:55:08.452Z,59.95
2022-08-22T18:00:18.885Z,59.83
2022-08-22T18:05:28.370Z,59.95
2022-08-22T18:10:45.930Z,59.92
2022-08-22T18:16:20.970Z,60.41
2022-08-22T18:21:37.733Z,60.26
2022-08-22T18:27:34.817Z,60.85
2022-08-22T18:32:55.043Z,60.70
2022-08-22T18:38:19.182Z,60.71
2022-08-22T18:43:32.151Z,61.30
2022-08-22T18:48:34.468Z,61.41
2022-08-22T18:53:44.881Z,61.53
2022-08-22T18:59:05.341Z,61.45
2022-08-22T19:04:40.591Z,61.80
2022-08-22T19:10:10.021Z,61.92
2022-08-22T19:15:29.448Z,61.55
2022-08-22T19:20:56.687Z,61.56
2022-08-22T19:26:23.716Z,61.54
2022-08-22T19:31:42.950Z,61.85
2022-08-22T19:37:06.445Z,61.78
2022-08-22T19:42:20.522Z,61.77
2022-08-22T19:47:28.769Z,61.46
2022-08-22T19:52:40.655Z,61.73
2022-08-22T19:58:16.595Z,62.02
2022-08-22T20:03:42.422Z,61.76
2022-08-22T20:09:21.845Z,61.90
2022-08-22T20:14:30.721Z,61.95
2022-08-22T20:25:42.278Z,62.24
2022-08-22T20:30:47.059Z,62.24
2022-08-22T20:35:59.582Z,62.55
2022-08-22T20:41:26.472Z,63.10
2022-08-22T20:46:34.188Z,62.90
2022-08-22T20:51:37.118Z,63.14
2022-08-22T20:56:53.032Z,63.37
2022-08-22T21:02:20.810Z,63.94
2022-08-22T21:07:44.622Z,63.83
2022-08-22T21:13:09.495Z,64.47
2022-08-22T21:18:14.705Z,64.68
2022-08-22T21:23:17.311Z,64.55
2022-08-22T21:28:37.309Z,65.54
2022-08-22T21:33:45.167Z,65.31
2022-08-22T21:38:56.121Z,65.58
2022-08-22T21:44:37.897Z,66.25
2022-08-22T21:50:13.442Z,66.26
2022-08-22T21:55:29.089Z,66.69
2022-08-22T22:00:54.971Z,66.76
2022-08-22T22:06:02.226Z,66.87
2022-08-22T22:11:11.397Z,66.86
2022-08-22T22:16:16.026Z,67.29
2022-08-22T22:21:18.076Z,67.42
2022-08-22T22:26:21.648Z,67.35
2022-08-22T22:31:23.485Z,67.96
2022-08-22T22:36:27.210Z,68.05
2022-08-22T22:41:29.198Z,68.13
2022-08-22T22:46:31.192Z,67.85
2022-08-22T22:51:33.046Z,68.19
2022-08-22T22:56:34.993Z,68.58
2022-08-22T23:01:36.848Z,68.66
2022-08-22T23:06:38.614Z,68.87
2022-08-22T23:11:40.441Z,69.08
2022-08-22T23:16:42.441Z,69.17
2022-08-22T23:21:45.576Z,69.32
2022-08-22T23:26:47.368Z,69.42
2022-08-22T23:31:52.671Z,69.61
2022-08-22T23:36:57.326Z,69.84
2022-08-22T23:41:59.801Z,70.11
2022-08-22T23:47:02.753Z,70.40
2022-08-22T23:52:06.208Z,70.40
2022-08-22T23:57:11.940Z,70.33
